createdAt,value
2023-03-25T00:00:57.759Z,86.51
2023-03-25T00:03:28.091Z,85.61
2023-03-25T00:05:56.181Z,85.73
2023-03-25T00:08:25.074Z,85.34
2023-03-25T00:10:54.547Z,85.26
2023-03-25T00:13:24.514Z,84.99
2023-03-25T00:15:53.444Z,84.49
2023-03-25T00:18:22.978Z,84.05
2023-03-25T00:20:53.706Z,83.59
2023-03-25T00:23:22.416Z,82.66
2023-03-25T00:25:52.935Z,82.06
2023-03-25T00:28:21.365Z,81.64
2023-03-25T00:30:49.337Z,81.27
2023-03-25T00:33:18.741Z,80.76
2023-03-25T00:35:49.633Z,79.96
2023-03-25T00:38:19.258Z,79.73
2023-03-25T00:40:48.590Z,79.57
2023-03-25T00:43:17.512Z,79.23
2023-03-25T00:45:48.141Z,78.87
2023-03-25T00:48:16.420Z,79.37
2023-03-25T00:50:44.899Z,78.98
2023-03-25T00:53:12.760Z,79.18
2023-03-25T00:55:42.514Z,79.20
2023-03-25T00:58:10.456Z,79.14
2023-03-25T01:00:38.352Z,79.07
2023-03-25T01:03:06.267Z,79.09
2023-03-25T01:05:35.770Z,79.29
2023-03-25T01:08:04.226Z,79.50
2023-03-25T01:10:32.289Z,79.56
2023-03-25T01:13:03.767Z,79.73
2023-03-25T01:15:31.903Z,79.70
2023-03-25T01:18:00.268Z,79.65
2023-03-25T01:20:28.409Z,79.31
2023-03-25T01:22:56.212Z,79.04
2023-03-25T01:25:24.080Z,78.78
2023-03-25T01:27:53.135Z,79.14
2023-03-25T01:30:22.596Z,78.82
2023-03-25T01:32:51.159Z,78.87
2023-03-25T01:35:19.071Z,78.96
2023-03-25T01:37:48.583Z,78.94
2023-03-25T01:40:21.020Z,78.84
2023-03-25T01:42:50.966Z,78.75
2023-03-25T01:45:26.440Z,78.54
2023-03-25T01:48:01.638Z,78.17
2023-03-25T01:50:32.576Z,78.39
2023-03-25T01:53:04.498Z,78.87
2023-03-25T01:55:35.283Z,78.63
2023-03-25T01:58:10.634Z,79.11
2023-03-25T02:00:41.225Z,78.50
2023-03-25T02:03:10.251Z,78.92
2023-03-25T02:05:46.427Z,79.04
2023-03-25T02:08:15.804Z,78.64
2023-03-25T02:10:46.622Z,78.53
2023-03-25T02:13:16.593Z,78.40
2023-03-25T02:16:05.852Z,78.30
2023-03-25T02:18:44.848Z,78.42
2023-03-25T02:21:27.896Z,78.10
2023-03-25T02:24:25.803Z,77.31
2023-03-25T02:27:15.041Z,77.09
2023-03-25T02:29:59.333Z,76.92
2023-03-25T02:32:51.803Z,76.83
2023-03-25T02:35:39.409Z,77.21
2023-03-25T02:38:41.772Z,76.73
2023-03-25T02:41:15.693Z,77.06
2023-03-25T02:43:49.072Z,76.23
2023-03-25T02:46:19.294Z,76.94
2023-03-25T02:48:54.438Z,76.98
2023-03-25T02:51:27.932Z,77.05
2023-03-25T02:54:01.083Z,77.80
2023-03-25T02:56:33.032Z,77.88
2023-03-25T02:59:01.974Z,77.76
2023-03-25T03:01:30.264Z,78.07
2023-03-25T03:03:58.228Z,78.00
2023-03-25T03:06:26.912Z,78.44
2023-03-25T03:09:12.428Z,78.32
2023-03-25T03:11:52.870Z,77.88
2023-03-25T03:14:39.573Z,77.97
2023-03-25T03:17:13.810Z,77.75
2023-03-25T03:19:48.755Z,78.07
2023-03-25T03:22:35.419Z,77.57
2023-03-25T03:25:12.362Z,77.36
2023-03-25T03:27:50.090Z,78.04
2023-03-25T03:30:23.713Z,77.67
2023-03-25T03:32:57.800Z,78.16
2023-03-25T03:35:29.254Z,78.35
2023-03-25T03:38:00.729Z,79.20
2023-03-25T03:40:32.090Z,79.55
2023-03-25T03:43:04.711Z,79.89
2023-03-25T03:45:38.003Z,81.10
2023-03-25T03:48:11.840Z,81.81
2023-03-25T03:50:42.931Z,81.67
2023-03-25T03:53:16.351Z,82.27
2023-03-25T03:55:52.168Z,82.62
2023-03-25T03:58:25.616Z,81.83
2023-03-25T04:01:03.332Z,82.77
2023-03-25T04:03:38.788Z,82.10
2023-03-25T04:06:13.551Z,82.60
2023-03-25T04:08:51.857Z,82.30
2023-03-25T04:11:26.496Z,82.26
2023-03-25T04:13:59.395Z,82.21
2023-03-25T04:16:28.526Z,82.14
2023-03-25T04:18:58.302Z,82.09
2023-03-25T04:21:30.057Z,81.51
2023-03-25T04:24:01.164Z,81.49
2023-03-25T04:26:34.341Z,81.49
2023-03-25T04:29:03.748Z,81.41
2023-03-25T04:31:32.382Z,81.09
2023-03-25T04:34:02.337Z,81.18
2023-03-25T04:36:33.574Z,80.76
2023-03-25T04:39:02.464Z,80.45
2023-03-25T04:41:32.004Z,80.17
2023-03-25T04:44:00.118Z,79.93
2023-03-25T04:46:29.744Z,79.70
2023-03-25T04:48:57.857Z,79.09
2023-03-25T04:51:25.785Z,79.27
2023-03-25T04:53:53.883Z,78.93
2023-03-25T04:56:23.477Z,78.35
2023-03-25T04:58:53.428Z,78.37
2023-03-25T05:01:30.882Z,77.22
2023-03-25T05:04:05.111Z,77.08
2023-03-25T05:06:34.196Z,77.19
2023-03-25T05:09:04.272Z,77.20
2023-03-25T05:11:35.915Z,76.32
2023-03-25T05:14:05.503Z,76.34
2023-03-25T05:16:33.762Z,77.06
2023-03-25T05:19:03.526Z,76.06
2023-03-25T05:21:31.850Z,75.59
2023-03-25T05:24:01.690Z,75.87
2023-03-25T05:26:34.604Z,76.10
2023-03-25T05:29:03.496Z,75.95
2023-03-25T05:31:33.411Z,75.92
2023-03-25T05:34:01.262Z,75.00
2023-03-25T05:36:29.724Z,75.09
2023-03-25T05:38:58.288Z,74.58
2023-03-25T05:41:32.644Z,74.87
2023-03-25T05:44:01.513Z,75.08
2023-03-25T05:46:30.654Z,75.20
2023-03-25T05:49:02.185Z,75.24
2023-03-25T05:51:33.790Z,74.48
2023-03-25T05:54:02.494Z,75.05
2023-03-25T05:56:30.867Z,75.16
2023-03-25T05:58:58.741Z,74.94
2023-03-25T06:01:33.437Z,75.35
2023-03-25T06:04:04.032Z,74.89
2023-03-25T06:06:34.159Z,75.03
2023-03-25T06:09:03.034Z,74.71
2023-03-25T06:11:37.881Z,74.51
2023-03-25T06:14:06.667Z,74.94
2023-03-25T06:16:35.461Z,74.72
2023-03-25T06:19:05.089Z,75.78
2023-03-25T06:21:36.218Z,76.36
2023-03-25T06:24:04.260Z,76.72
2023-03-25T06:26:32.632Z,77.06
2023-03-25T06:29:02.651Z,77.02
2023-03-25T06:31:33.619Z,77.15
2023-03-25T06:34:02.457Z,77.46
2023-03-25T06:36:31.815Z,77.59
2023-03-25T06:39:02.667Z,76.52
2023-03-25T06:41:34.381Z,76.27
2023-03-25T06:44:24.719Z,75.59
2023-03-25T06:46:53.201Z,76.05
2023-03-25T06:49:30.675Z,76.39
2023-03-25T06:52:02.144Z,76.67
2023-03-25T06:54:30.313Z,77.04
2023-03-25T06:56:58.197Z,76.71
2023-03-25T06:59:26.464Z,75.97
2023-03-25T07:01:54.422Z,76.17
2023-03-25T07:04:22.412Z,76.05
2023-03-25T07:06:50.417Z,75.28
2023-03-25T07:09:20.640Z,74.44
2023-03-25T07:11:49.035Z,74.42
2023-03-25T07:14:16.992Z,73.98
2023-03-25T07:16:44.926Z,73.32
2023-03-25T07:19:12.736Z,73.83
2023-03-25T07:21:40.956Z,74.38
2023-03-25T07:24:11.542Z,75.94
2023-03-25T07:26:41.821Z,76.20
2023-03-25T07:29:11.413Z,75.91
2023-03-25T07:31:40.284Z,76.57
2023-03-25T07:34:08.554Z,77.17
2023-03-25T07:36:36.502Z,77.17
2023-03-25T07:39:04.739Z,77.26
2023-03-25T07:41:32.603Z,77.09
2023-03-25T07:44:16.544Z,77.57
2023-03-25T07:46:46.594Z,78.36
2023-03-25T07:49:14.437Z,79.45
2023-03-25T07:51:42.491Z,79.26
2023-03-25T07:54:11.170Z,78.71
2023-03-25T07:56:39.557Z,78.19
2023-03-25T07:59:07.775Z,77.23
2023-03-25T08:01:37.065Z,77.89
2023-03-25T08:04:06.311Z,77.65
2023-03-25T08:06:34.416Z,77.91
2023-03-25T08:09:02.391Z,78.13
2023-03-25T08:11:31.216Z,78.21
2023-03-25T08:13:59.493Z,78.05
2023-03-25T08:16:27.630Z,78.09
2023-03-25T08:19:06.007Z,77.90
2023-03-25T08:21:33.799Z,77.03
2023-03-25T08:24:04.648Z,76.25
2023-03-25T08:26:37.548Z,76.23
2023-03-25T08:29:07.631Z,75.97
2023-03-25T08:31:38.850Z,75.90
2023-03-25T08:34:08.191Z,74.90
2023-03-25T08:36:39.327Z,75.34
2023-03-25T08:39:11.743Z,75.36
2023-03-25T08:41:39.943Z,75.37
2023-03-25T08:44:08.548Z,74.42
2023-03-25T08:46:36.865Z,74.23
2023-03-25T08:49:06.389Z,74.29
2023-03-25T08:51:35.832Z,73.60
2023-03-25T08:54:04.097Z,73.75
2023-03-25T08:56:32.038Z,73.45
2023-03-25T08:59:00.386Z,73.16
2023-03-25T09:01:28.412Z,73.24
2023-03-25T09:03:57.766Z,73.30
2023-03-25T09:06:26.101Z,72.56
2023-03-25T09:08:56.167Z,71.88
2023-03-25T09:11:35.927Z,69.98
2023-03-25T09:14:05.710Z,69.39
2023-03-25T09:16:34.378Z,69.08
2023-03-25T09:19:02.794Z,69.81
2023-03-25T09:21:30.697Z,68.13
2023-03-25T09:24:00.283Z,68.99
2023-03-25T09:26:28.138Z,68.91
2023-03-25T09:28:56.567Z,68.11
2023-03-25T09:31:24.751Z,65.65
2023-03-25T09:33:53.719Z,65.52
2023-03-25T09:36:21.821Z,64.54
2023-03-25T09:38:50.212Z,64.15
2023-03-25T09:41:31.707Z,62.18
2023-03-25T09:44:11.100Z,61.34
2023-03-25T09:46:40.811Z,62.54
2023-03-25T09:49:15.592Z,61.10
2023-03-25T09:51:47.660Z,60.39
2023-03-25T09:54:23.961Z,59.31
2023-03-25T09:56:56.221Z,59.11
2023-03-25T09:59:28.523Z,58.81
2023-03-25T10:02:05.507Z,58.45
2023-03-25T10:04:54.207Z,57.94
2023-03-25T10:07:43.419Z,57.50
2023-03-25T10:10:22.214Z,55.61
2023-03-25T10:13:02.506Z,56.77
2023-03-25T10:15:40.426Z,55.63
2023-03-25T10:18:28.540Z,56.39
2023-03-25T10:21:03.549Z,57.25
2023-03-25T10:23:38.155Z,57.36
2023-03-25T10:26:11.992Z,58.47
2023-03-25T10:28:47.539Z,59.10
2023-03-25T10:31:18.546Z,59.62
2023-03-25T10:33:54.260Z,59.91
2023-03-25T10:36:33.178Z,60.40
2023-03-25T10:39:05.510Z,59.41
2023-03-25T10:41:37.895Z,60.52
2023-03-25T10:44:14.128Z,61.08
2023-03-25T10:46:48.412Z,61.77
2023-03-25T10:49:20.201Z,61.06
2023-03-25T10:51:48.902Z,59.17
2023-03-25T10:54:19.273Z,58.80
2023-03-25T10:56:51.504Z,58.43
2023-03-25T10:59:30.090Z,58.48
2023-03-25T11:01:59.215Z,57.81
2023-03-25T11:04:35.467Z,56.92
2023-03-25T11:07:05.899Z,57.15
2023-03-25T11:09:37.435Z,58.42
2023-03-25T11:12:08.775Z,57.95
2023-03-25T11:14:41.855Z,58.89
2023-03-25T11:17:16.738Z,59.24
2023-03-25T11:19:56.449Z,58.23
2023-03-25T11:22:29.317Z,59.93
2023-03-25T11:25:03.362Z,61.85
2023-03-25T11:27:32.253Z,62.57
2023-03-25T11:30:06.629Z,63.30
2023-03-25T11:32:36.086Z,64.23
2023-03-25T11:35:09.208Z,62.86
2023-03-25T11:37:44.546Z,62.38
2023-03-25T11:40:16.271Z,62.06
2023-03-25T11:42:49.686Z,62.28
2023-03-25T11:45:30.862Z,62.19
2023-03-25T11:48:02.283Z,62.00
2023-03-25T11:50:31.679Z,62.07
2023-03-25T11:53:02.508Z,60.51
2023-03-25T11:55:34.788Z,60.38
2023-03-25T11:58:04.383Z,60.76
2023-03-25T12:00:38.927Z,59.48
2023-03-25T12:03:20.166Z,58.90
2023-03-25T12:06:01.411Z,58.40
2023-03-25T12:08:44.011Z,58.00
2023-03-25T12:11:17.934Z,58.33
2023-03-25T12:14:05.384Z,58.10
2023-03-25T12:16:41.479Z,56.89
2023-03-25T12:19:21.618Z,55.83
2023-03-25T12:22:05.764Z,55.65
2023-03-25T12:24:51.621Z,56.92
2023-03-25T12:27:34.494Z,57.39
2023-03-25T12:30:13.722Z,59.07
2023-03-25T12:32:51.716Z,60.04
2023-03-25T12:35:29.719Z,59.31
2023-03-25T12:38:32.636Z,59.90
2023-03-25T12:41:18.683Z,59.45
2023-03-25T12:43:59.994Z,59.75
2023-03-25T12:46:42.046Z,59.46
2023-03-25T12:49:22.812Z,63.01
2023-03-25T12:51:59.457Z,65.38
2023-03-25T12:54:45.286Z,68.50
2023-03-25T12:57:28.980Z,69.54
2023-03-25T13:00:25.648Z,69.42
2023-03-25T13:03:44.628Z,67.99
2023-03-25T13:06:23.102Z,67.41
2023-03-25T13:08:55.647Z,67.31
2023-03-25T13:11:27.672Z,66.73
2023-03-25T13:14:00.513Z,66.80
2023-03-25T13:16:32.891Z,66.70
2023-03-25T13:19:04.777Z,67.08
2023-03-25T13:21:38.820Z,66.98
2023-03-25T13:24:12.213Z,67.07
2023-03-25T13:26:44.457Z,66.06
2023-03-25T13:29:22.367Z,66.19
2023-03-25T13:31:51.340Z,66.41
2023-03-25T13:34:36.697Z,66.65
2023-03-25T13:37:11.689Z,67.19
2023-03-25T13:39:55.118Z,67.44
2023-03-25T13:42:29.084Z,66.68
2023-03-25T13:44:59.780Z,66.70
2023-03-25T13:47:33.936Z,65.74
2023-03-25T13:50:06.190Z,66.06
2023-03-25T13:52:41.185Z,65.87
2023-03-25T13:55:15.876Z,65.71
2023-03-25T13:58:12.940Z,64.63
2023-03-25T14:01:12.944Z,64.23
2023-03-25T14:04:22.162Z,64.92
2023-03-25T14:07:36.305Z,66.76
2023-03-25T14:10:24.882Z,66.36
2023-03-25T14:12:57.781Z,67.31
2023-03-25T14:15:30.450Z,67.13
2023-03-25T14:17:58.862Z,68.94
2023-03-25T14:20:31.491Z,69.31
2023-03-25T14:23:03.262Z,69.63
2023-03-25T14:25:38.456Z,70.94
2023-03-25T14:28:08.433Z,71.32
2023-03-25T14:30:40.119Z,72.03
2023-03-25T14:33:11.219Z,72.26
2023-03-25T14:35:50.257Z,72.22
2023-03-25T14:38:51.609Z,72.31
2023-03-25T14:41:54.196Z,72.35
2023-03-25T14:44:28.842Z,73.46
2023-03-25T14:47:28.646Z,73.93
2023-03-25T14:50:05.652Z,74.28
2023-03-25T14:52:34.224Z,76.24
2023-03-25T14:55:10.169Z,75.23
2023-03-25T14:57:43.376Z,74.92
2023-03-25T15:00:28.954Z,75.90
2023-03-25T15:03:04.373Z,76.36
2023-03-25T15:05:34.940Z,75.99
2023-03-25T15:08:14.581Z,77.21
2023-03-25T15:10:45.127Z,76.58
2023-03-25T15:13:21.466Z,77.16
2023-03-25T15:16:01.306Z,77.85
2023-03-25T15:19:01.572Z,77.54
2023-03-25T15:22:11.199Z,76.84
2023-03-25T15:24:42.203Z,76.07
2023-03-25T15:27:24.593Z,77.12
2023-03-25T15:30:03.732Z,77.55
2023-03-25T15:32:49.832Z,77.78
2023-03-25T15:35:50.511Z,77.39
2023-03-25T15:38:34.736Z,77.87
2023-03-25T15:41:28.776Z,78.72
2023-03-25T15:44:26.165Z,79.59
2023-03-25T15:47:15.705Z,78.12
2023-03-25T15:50:07.656Z,78.15
2023-03-25T15:52:54.610Z,77.50
2023-03-25T15:55:28.445Z,76.56
2023-03-25T15:58:03.893Z,76.60
2023-03-25T16:00:34.482Z,76.27
2023-03-25T16:03:08.782Z,76.24
2023-03-25T16:05:41.482Z,75.60
2023-03-25T16:08:12.382Z,75.29
2023-03-25T16:10:41.494Z,75.32
2023-03-25T16:13:13.207Z,75.13
2023-03-25T16:15:42.283Z,75.20
2023-03-25T16:18:14.142Z,75.02
2023-03-25T16:20:46.837Z,75.46
2023-03-25T16:23:20.033Z,74.80
2023-03-25T16:25:50.925Z,74.53
2023-03-25T16:28:22.313Z,74.74
2023-03-25T16:30:53.394Z,75.05
2023-03-25T16:33:27.744Z,75.47
2023-03-25T16:36:00.133Z,76.26
2023-03-25T16:38:28.695Z,76.31
2023-03-25T16:41:01.814Z,77.44
2023-03-25T16:43:31.531Z,77.50
2023-03-25T16:46:01.921Z,78.11
2023-03-25T16:48:31.972Z,78.91
2023-03-25T16:51:09.820Z,79.59
2023-03-25T16:53:40.647Z,78.73
2023-03-25T16:56:23.354Z,77.99
2023-03-25T16:58:58.487Z,77.47
2023-03-25T17:01:29.279Z,77.03
2023-03-25T17:04:10.037Z,77.84
2023-03-25T17:06:42.990Z,78.04
2023-03-25T17:09:17.127Z,78.43
2023-03-25T17:11:46.256Z,78.61
2023-03-25T17:14:19.722Z,79.24
2023-03-25T17:16:50.848Z,79.45
2023-03-25T17:19:21.398Z,79.91
2023-03-25T17:22:25.588Z,80.73
2023-03-25T17:24:55.708Z,80.54
2023-03-25T17:27:33.968Z,80.70
2023-03-25T17:30:17.639Z,80.91
2023-03-25T17:32:46.571Z,80.52
2023-03-25T17:35:21.383Z,81.13
2023-03-25T17:37:52.041Z,80.74
2023-03-25T17:40:25.462Z,81.49
2023-03-25T17:42:54.255Z,81.57
2023-03-25T17:45:23.577Z,82.09
2023-03-25T17:47:52.252Z,83.40
2023-03-25T17:50:23.344Z,83.22
2023-03-25T17:52:52.778Z,83.10
2023-03-25T17:55:21.091Z,83.24
2023-03-25T17:57:49.785Z,83.04
2023-03-25T18:00:22.031Z,82.59
2023-03-25T18:02:49.960Z,83.16
2023-03-25T18:05:18.180Z,82.90
2023-03-25T18:07:46.356Z,82.63
2023-03-25T18:10:19.103Z,83.11
2023-03-25T18:12:47.525Z,83.02
2023-03-25T18:15:15.564Z,83.72
2023-03-25T18:17:43.545Z,83.46
2023-03-25T18:20:15.828Z,83.45
2023-03-25T18:22:43.893Z,83.82
2023-03-25T18:25:12.772Z,84.03
2023-03-25T18:27:44.391Z,83.63
2023-03-25T18:30:21.975Z,84.36
2023-03-25T18:32:50.203Z,84.61
2023-03-25T18:35:18.654Z,84.33
2023-03-25T18:37:48.768Z,84.42
2023-03-25T18:40:20.931Z,83.92
2023-03-25T18:42:51.140Z,83.49
2023-03-25T18:45:19.420Z,83.42
2023-03-25T18:47:47.925Z,83.30
2023-03-25T18:50:29.856Z,83.74
2023-03-25T18:52:58.765Z,83.74
2023-03-25T18:55:28.894Z,84.33
2023-03-25T18:57:58.866Z,84.37
2023-03-25T19:00:29.582Z,84.57
2023-03-25T19:02:59.247Z,84.18
2023-03-25T19:05:28.296Z,84.23
2023-03-25T19:07:56.157Z,84.64
2023-03-25T19:10:25.569Z,84.94
2023-03-25T19:12:53.446Z,85.18
2023-03-25T19:15:28.346Z,86.01
2023-03-25T19:17:58.486Z,86.52
2023-03-25T19:20:29.351Z,86.40
2023-03-25T19:22:57.561Z,86.42
2023-03-25T19:25:26.514Z,87.22
2023-03-25T19:27:55.884Z,87.65
2023-03-25T19:30:26.487Z,87.25
2023-03-25T19:32:57.016Z,88.03
2023-03-25T19:35:26.540Z,87.91
2023-03-25T19:37:56.376Z,88.07
2023-03-25T19:40:28.005Z,88.68
2023-03-25T19:42:58.251Z,88.44
2023-03-25T19:45:28.737Z,88.24
2023-03-25T19:47:57.419Z,88.98
2023-03-25T19:50:27.590Z,89.03
2023-03-25T19:52:55.512Z,88.82
2023-03-25T19:55:24.669Z,88.79
2023-03-25T19:57:53.056Z,88.51
2023-03-25T20:00:23.472Z,88.56
2023-03-25T20:02:55.995Z,88.32
2023-03-25T20:05:25.092Z,87.79
2023-03-25T20:07:54.829Z,87.68
2023-03-25T20:10:25.746Z,87.40
2023-03-25T20:12:53.858Z,87.28
2023-03-25T20:15:23.422Z,87.13
2023-03-25T20:17:54.114Z,87.89
2023-03-25T20:20:24.576Z,87.77
2023-03-25T20:22:52.870Z,88.19
2023-03-25T20:25:21.342Z,88.11
2023-03-25T20:27:49.420Z,88.17
2023-03-25T20:30:19.477Z,88.18
2023-03-25T20:32:48.684Z,88.09
2023-03-25T20:35:19.990Z,88.37
2023-03-25T20:37:49.128Z,88.37
2023-03-25T20:40:18.653Z,88.28
2023-03-25T20:42:48.897Z,87.50
2023-03-25T20:45:18.764Z,87.44
2023-03-25T20:47:46.806Z,87.32
2023-03-25T20:50:16.820Z,86.86
2023-03-25T20:52:46.557Z,86.39
2023-03-25T20:55:14.640Z,86.04
2023-03-25T20:57:42.717Z,85.47
2023-03-25T21:00:14.568Z,85.44
2023-03-25T21:02:44.146Z,85.35
2023-03-25T21:05:12.187Z,85.07
2023-03-25T21:07:41.247Z,84.71
2023-03-25T21:10:12.064Z,84.36
2023-03-25T21:12:44.276Z,84.33
2023-03-25T21:15:15.016Z,84.17
2023-03-25T21:17:43.410Z,83.92
2023-03-25T21:20:13.242Z,83.87
2023-03-25T21:22:44.248Z,83.72
2023-03-25T21:25:16.789Z,83.37
2023-03-25T21:27:46.600Z,83.38
2023-03-25T21:30:15.340Z,83.09
2023-03-25T21:32:43.531Z,83.11
2023-03-25T21:35:11.565Z,83.20
2023-03-25T21:37:40.324Z,83.10
2023-03-25T21:40:11.533Z,83.11
2023-03-25T21:42:41.633Z,83.22
2023-03-25T21:45:11.992Z,82.98
2023-03-25T21:47:39.994Z,83.08
2023-03-25T21:50:11.358Z,83.04
2023-03-25T21:52:43.468Z,83.14
2023-03-25T21:55:12.581Z,83.44
2023-03-25T21:57:44.825Z,83.36
2023-03-25T22:00:16.887Z,83.46
2023-03-25T22:02:46.924Z,83.50
2023-03-25T22:05:16.892Z,83.32
2023-03-25T22:07:44.992Z,83.20
2023-03-25T22:10:13.301Z,83.19
2023-03-25T22:12:42.438Z,83.30
2023-03-25T22:15:11.897Z,83.15
2023-03-25T22:17:40.045Z,83.42
2023-03-25T22:20:10.363Z,83.28
2023-03-25T22:22:38.469Z,83.16
2023-03-25T22:25:08.776Z,83.27
2023-03-25T22:27:39.361Z,83.31
2023-03-25T22:30:10.575Z,83.18
2023-03-25T22:32:38.403Z,82.97
2023-03-25T22:35:07.366Z,83.16
2023-03-25T22:37:36.864Z,83.20
2023-03-25T22:40:08.528Z,83.09
2023-03-25T22:42:36.346Z,83.22
2023-03-25T22:45:04.613Z,83.24
2023-03-25T22:47:33.833Z,83.10
2023-03-25T22:50:01.747Z,83.30
2023-03-25T22:52:31.113Z,83.00
2023-03-25T22:54:59.004Z,83.12
2023-03-25T22:57:26.872Z,82.99
2023-03-25T22:59:54.683Z,83.14
2023-03-25T23:02:23.573Z,83.17
2023-03-25T23:04:53.078Z,83.04
2023-03-25T23:07:20.949Z,83.16
2023-03-25T23:09:48.987Z,83.00
2023-03-25T23:12:21.316Z,82.97
2023-03-25T23:14:51.563Z,82.99
2023-03-25T23:17:20.102Z,83.04
2023-03-25T23:19:48.180Z,83.00
2023-03-25T23:22:17.729Z,82.84
2023-03-25T23:24:46.284Z,82.92
2023-03-25T23:27:15.571Z,82.98
2023-03-25T23:29:43.380Z,83.10
2023-03-25T23:32:14.535Z,83.01
2023-03-25T23:34:45.392Z,82.80
2023-03-25T23:37:13.343Z,82.79
2023-03-25T23:39:46.106Z,83.05
2023-03-25T23:42:13.958Z,82.94
2023-03-25T23:44:43.940Z,82.69
2023-03-25T23:47:11.823Z,83.28
2023-03-25T23:49:40.161Z,82.99
2023-03-25T23:52:11.505Z,83.30
2023-03-25T23:54:40.854Z,83.64
2023-03-25T23:57:10.330Z,83.88
2023-03-25T23:59:39.279Z,84.17
